»·PEaware :: N3021E KSBD-KEMT

N3021E :: KSBD-KEMT

FLIGHT INFORMATION

Flight Status: Arrived
Operator: Privately registered:
United States
More flights under this callsign
Pilot: Northwest Flight Service (22302)
Aircraft: CESSNA 172 SKYHAWK
(C172)
More flights by this aircraft type
Origin: KSBD San Bernardino Intl
United States
Destination: KEMT El Monte
United States
More flights between these airports :: More routes between these airports
Route:
File this flight plan on PilotEdge
Remarks:
Altitude:
(Current/Filed)
4,500ft
Speed:
(Current/Filed)
110kts
Departed: 24-Jan-23 06:18 PM
Arrived: 24-Jan-23 06:49 PM
Distance/Time
Traveled:
40nm/0:30
Distance/Time
To Go:
Arrived

Flight Plot

Page will automatically refresh every two minutes.


Map Options




Map Legend


Flown Route
Filed Route
Departure Airport
Arrival Airport
Navaid (VOR, NDB)
Fix

Horizontal Profiles

Position Reports

Time Latitude Longitude Heading Altitude Ground
Speed
24-Jan-23 17:46 34.104716 -117.245515 325 1098ft 0kts
24-Jan-23 17:47 34.104716 -117.245515 325 1098ft 0kts
24-Jan-23 17:48 34.104716 -117.245515 325 1098ft 0kts
24-Jan-23 17:49 34.104716 -117.245515 325 1098ft 0kts
24-Jan-23 17:50 34.104716 -117.245515 325 1098ft 0kts
24-Jan-23 17:51 34.104716 -117.245515 325 1098ft 0kts
24-Jan-23 17:52 34.104716 -117.245515 325 1098ft 0kts
24-Jan-23 17:53 34.104716 -117.245515 325 1098ft 0kts
24-Jan-23 17:54 34.104716 -117.245515 325 1098ft 0kts
24-Jan-23 17:55 34.104716 -117.245515 325 1098ft 0kts
24-Jan-23 17:56 34.104716 -117.245515 325 1098ft 0kts
24-Jan-23 17:57 34.104716 -117.245515 325 1098ft 0kts
24-Jan-23 17:58 34.104716 -117.245515 325 1098ft 0kts
24-Jan-23 17:59 34.104716 -117.245515 325 1098ft 0kts
24-Jan-23 18:00 34.104716 -117.245515 325 1098ft 0kts
24-Jan-23 18:01 34.104716 -117.245515 325 1098ft 0kts
24-Jan-23 18:02 34.104727 -117.245522 336 1098ft 0kts
24-Jan-23 18:03 34.104155 -117.245149 157 1099ft 8kts
24-Jan-23 18:04 34.101491 -117.244554 180 1096ft 14kts
24-Jan-23 18:05 34.099696 -117.242748 85 1100ft 13kts
24-Jan-23 18:06 34.096085 -117.241968 182 1098ft 12kts
24-Jan-23 18:07 34.094719 -117.243059 249 1096ft 13kts
24-Jan-23 18:08 34.092850 -117.249391 247 1084ft 19kts
24-Jan-23 18:09 34.092391 -117.250923 212 1081ft 0kts
24-Jan-23 18:10 34.092391 -117.250923 210 1081ft 0kts
24-Jan-23 18:11 34.092391 -117.250923 210 1081ft 0kts
24-Jan-23 18:12 34.091687 -117.250810 160 1081ft 0kts
24-Jan-23 18:13 34.091687 -117.250810 160 1081ft 0kts
24-Jan-23 18:14 34.091675 -117.250804 159 1081ft 0kts
24-Jan-23 18:15 34.091636 -117.250786 154 1081ft 0kts
24-Jan-23 18:16 34.091313 -117.248244 65 1086ft 39kts
24-Jan-23 18:17 34.092917 -117.228755 95 1757ft 69kts
24-Jan-23 18:18 34.083145 -117.235850 269 2456ft 87kts
24-Jan-23 18:19 34.090870 -117.258109 329 3429ft 70kts
24-Jan-23 18:20 34.110175 -117.264967 346 4187ft 73kts
24-Jan-23 18:21 34.131112 -117.280716 294 4517ft 109kts
24-Jan-23 18:22 34.140725 -117.313755 285 4515ft 102kts
24-Jan-23 18:23 34.142174 -117.346011 223 4510ft 100kts
24-Jan-23 18:24 34.119755 -117.366781 217 4519ft 102kts
24-Jan-23 18:25 34.096495 -117.388289 217 4414ft 101kts
24-Jan-23 18:26 34.079483 -117.415016 251 4418ft 104kts
24-Jan-23 18:27 34.072943 -117.449432 261 4417ft 106kts
24-Jan-23 18:28 34.068693 -117.484705 262 4417ft 106kts
24-Jan-23 18:29 34.064825 -117.519893 263 4417ft 106kts
24-Jan-23 18:30 34.060986 -117.555256 263 4417ft 106kts
24-Jan-23 18:31 34.057154 -117.590556 263 4417ft 106kts
24-Jan-23 18:32 34.057716 -117.625983 275 4417ft 106kts
24-Jan-23 18:33 34.060214 -117.661515 274 4417ft 106kts
24-Jan-23 18:34 34.062711 -117.697000 275 4394ft 108kts
24-Jan-23 18:35 34.065162 -117.731729 275 3881ft 99kts
24-Jan-23 18:36 34.067455 -117.764567 275 3377ft 97kts
24-Jan-23 18:37 34.069717 -117.797040 275 2878ft 97kts
24-Jan-23 18:38 34.071883 -117.828568 274 2767ft 99kts
24-Jan-23 18:39 34.074362 -117.864227 275 2670ft 115kts
24-Jan-23 18:40 34.077148 -117.904413 275 2279ft 122kts
24-Jan-23 18:41 34.096144 -117.921349 53 1866ft 110kts
24-Jan-23 18:42 34.081153 -117.907698 234 1464ft 105kts
24-Jan-23 18:43 34.087517 -117.940231 290 1115ft 99kts
24-Jan-23 18:44 34.094767 -117.968977 285 1114ft 82kts
24-Jan-23 18:45 34.100745 -117.993853 292 1117ft 69kts
24-Jan-23 18:46 34.104096 -118.012303 259 727ft 46kts
24-Jan-23 18:47 34.096473 -118.024598 224 410ft 46kts
24-Jan-23 18:48 34.087069 -118.034180 215 286ft 28kts
24-Jan-23 18:49 34.085364 -118.034631 126 286ft 0kts
24-Jan-23 18:50 34.085364 -118.034631 126 286ft 0kts
24-Jan-23 18:51 34.085157 -118.034277 123 287ft 0kts

Navigation Log

Ident Type
Flight plan parsing failed, navigation log unavailable